sensor_id;sensor_type;location;lat;lon;timestamp;temperature;humidity
18450;DHT22;9354;50.194;7.690;2024-02-16T00:00:54;11.60;99.90
18450;DHT22;9354;50.194;7.690;2024-02-16T00:03:21;11.50;99.90
18450;DHT22;9354;50.194;7.690;2024-02-16T00:05:50;11.60;99.90
18450;DHT22;9354;50.194;7.690;2024-02-16T00:08:18;11.60;99.90
18450;DHT22;9354;50.194;7.690;2024-02-16T00:10:46;11.60;99.90
18450;DHT22;9354;50.194;7.690;2024-02-16T00:13:13;11.60;99.90
18450;DHT22;9354;50.194;7.690;2024-02-16T00:15:41;11.60;99.90
18450;DHT22;9354;50.194;7.690;2024-02-16T00:18:08;11.70;99.90
18450;DHT22;9354;50.194;7.690;2024-02-16T00:20:36;11.70;99.90
18450;DHT22;9354;50.194;7.690;2024-02-16T00:23:04;11.70;99.90
18450;DHT22;9354;50.194;7.690;2024-02-16T00:25:32;11.70;99.90
18450;DHT22;9354;50.194;7.690;2024-02-16T00:27:59;11.60;99.90
18450;DHT22;9354;50.194;7.690;2024-02-16T00:30:26;11.70;99.90
18450;DHT22;9354;50.194;7.690;2024-02-16T00:32:54;11.60;99.90
18450;DHT22;9354;50.194;7.690;2024-02-16T00:35:22;11.60;99.90
18450;DHT22;9354;50.194;7.690;2024-02-16T00:37:49;11.60;99.90
18450;DHT22;9354;50.194;7.690;2024-02-16T00:40:19;11.50;99.90
18450;DHT22;9354;50.194;7.690;2024-02-16T00:42:46;11.60;99.90
18450;DHT22;9354;50.194;7.690;2024-02-16T00:45:14;11.60;99.90
18450;DHT22;9354;50.194;7.690;2024-02-16T00:47:41;11.60;99.90
18450;DHT22;9354;50.194;7.690;2024-02-16T00:50:11;11.60;99.90
18450;DHT22;9354;50.194;7.690;2024-02-16T00:52:39;11.60;99.90
18450;DHT22;9354;50.194;7.690;2024-02-16T00:55:06;11.60;99.90
18450;DHT22;9354;50.194;7.690;2024-02-16T00:57:35;11.60;99.90
18450;DHT22;9354;50.194;7.690;2024-02-16T01:00:04;11.60;99.90
18450;DHT22;9354;50.194;7.690;2024-02-16T01:02:31;11.60;99.90
18450;DHT22;9354;50.194;7.690;2024-02-16T01:04:59;11.60;99.90
18450;DHT22;9354;50.194;7.690;2024-02-16T01:07:28;11.50;99.90
18450;DHT22;9354;50.194;7.690;2024-02-16T01:09:57;11.60;99.90
18450;DHT22;9354;50.194;7.690;2024-02-16T01:12:26;11.50;99.90
18450;DHT22;9354;50.194;7.690;2024-02-16T01:14:54;11.50;99.90
18450;DHT22;9354;50.194;7.690;2024-02-16T01:17:22;11.50;99.90
18450;DHT22;9354;50.194;7.690;2024-02-16T01:19:49;11.50;99.90
18450;DHT22;9354;50.194;7.690;2024-02-16T01:22:17;11.50;99.90
18450;DHT22;9354;50.194;7.690;2024-02-16T01:24:44;11.50;99.90
18450;DHT22;9354;50.194;7.690;2024-02-16T01:27:11;11.50;99.90
18450;DHT22;9354;50.194;7.690;2024-02-16T01:29:39;11.50;99.90
18450;DHT22;9354;50.194;7.690;2024-02-16T01:32:09;11.50;99.90
18450;DHT22;9354;50.194;7.690;2024-02-16T01:34:36;11.50;99.90
18450;DHT22;9354;50.194;7.690;2024-02-16T01:37:05;11.50;99.90
18450;DHT22;9354;50.194;7.690;2024-02-16T01:39:32;11.50;99.90
18450;DHT22;9354;50.194;7.690;2024-02-16T01:42:00;11.50;99.90
18450;DHT22;9354;50.194;7.690;2024-02-16T01:44:27;11.60;99.90
18450;DHT22;9354;50.194;7.690;2024-02-16T01:46:54;11.60;99.90
18450;DHT22;9354;50.194;7.690;2024-02-16T01:49:23;11.60;99.90
18450;DHT22;9354;50.194;7.690;2024-02-16T01:51:51;11.60;99.90
18450;DHT22;9354;50.194;7.690;2024-02-16T01:54:18;11.70;99.90
18450;DHT22;9354;50.194;7.690;2024-02-16T01:56:46;11.60;99.90
18450;DHT22;9354;50.194;7.690;2024-02-16T01:59:15;11.70;99.90
18450;DHT22;9354;50.194;7.690;2024-02-16T02:01:42;11.70;99.90
18450;DHT22;9354;50.194;7.690;2024-02-16T02:04:10;11.80;99.90
18450;DHT22;9354;50.194;7.690;2024-02-16T02:06:39;11.70;99.90
18450;DHT22;9354;50.194;7.690;2024-02-16T02:09:06;11.80;99.90
18450;DHT22;9354;50.194;7.690;2024-02-16T02:11:35;11.80;99.90
18450;DHT22;9354;50.194;7.690;2024-02-16T02:14:03;11.80;99.90
18450;DHT22;9354;50.194;7.690;2024-02-16T02:16:31;11.90;99.90
18450;DHT22;9354;50.194;7.690;2024-02-16T02:18:59;11.90;99.90
18450;DHT22;9354;50.194;7.690;2024-02-16T02:21:26;11.90;99.90
18450;DHT22;9354;50.194;7.690;2024-02-16T02:23:55;11.90;99.90
18450;DHT22;9354;50.194;7.690;2024-02-16T02:26:22;11.90;99.90
18450;DHT22;9354;50.194;7.690;2024-02-16T02:28:49;11.90;99.90
18450;DHT22;9354;50.194;7.690;2024-02-16T02:31:17;11.90;99.90
18450;DHT22;9354;50.194;7.690;2024-02-16T02:33:45;11.90;99.90
18450;DHT22;9354;50.194;7.690;2024-02-16T02:36:13;11.90;99.90
18450;DHT22;9354;50.194;7.690;2024-02-16T02:38:41;11.90;99.90
18450;DHT22;9354;50.194;7.690;2024-02-16T02:41:09;11.90;99.90
18450;DHT22;9354;50.194;7.690;2024-02-16T02:43:37;11.80;99.90
18450;DHT22;9354;50.194;7.690;2024-02-16T02:46:04;11.80;99.90
18450;DHT22;9354;50.194;7.690;2024-02-16T02:48:32;11.80;99.90
18450;DHT22;9354;50.194;7.690;2024-02-16T02:51:00;11.80;99.90
18450;DHT22;9354;50.194;7.690;2024-02-16T02:53:28;11.80;99.90
18450;DHT22;9354;50.194;7.690;2024-02-16T02:55:55;11.70;99.90
18450;DHT22;9354;50.194;7.690;2024-02-16T02:58:24;11.70;99.90
18450;DHT22;9354;50.194;7.690;2024-02-16T03:00:51;11.70;99.90
18450;DHT22;9354;50.194;7.690;2024-02-16T03:03:19;11.70;99.90
18450;DHT22;9354;50.194;7.690;2024-02-16T03:05:47;11.70;99.90
18450;DHT22;9354;50.194;7.690;2024-02-16T03:08:15;11.70;99.90
18450;DHT22;9354;50.194;7.690;2024-02-16T03:10:42;11.70;99.90
18450;DHT22;9354;50.194;7.690;2024-02-16T03:13:10;11.70;99.90
18450;DHT22;9354;50.194;7.690;2024-02-16T03:15:40;11.70;99.90
18450;DHT22;9354;50.194;7.690;2024-02-16T03:18:07;11.60;99.90
18450;DHT22;9354;50.194;7.690;2024-02-16T03:20:35;11.70;99.90
18450;DHT22;9354;50.194;7.690;2024-02-16T03:23:02;11.60;99.90
18450;DHT22;9354;50.194;7.690;2024-02-16T03:25:30;11.50;99.90
18450;DHT22;9354;50.194;7.690;2024-02-16T03:27:57;11.40;99.90
18450;DHT22;9354;50.194;7.690;2024-02-16T03:30:26;11.40;99.90
18450;DHT22;9354;50.194;7.690;2024-02-16T03:32:55;11.40;99.90
18450;DHT22;9354;50.194;7.690;2024-02-16T03:35:22;11.30;99.90
18450;DHT22;9354;50.194;7.690;2024-02-16T03:37:50;11.30;99.90
18450;DHT22;9354;50.194;7.690;2024-02-16T03:40:18;11.40;99.90
18450;DHT22;9354;50.194;7.690;2024-02-16T03:42:45;11.40;99.90
18450;DHT22;9354;50.194;7.690;2024-02-16T03:45:12;11.40;99.90
18450;DHT22;9354;50.194;7.690;2024-02-16T03:47:40;11.40;99.90
18450;DHT22;9354;50.194;7.690;2024-02-16T03:50:10;11.40;99.90
18450;DHT22;9354;50.194;7.690;2024-02-16T03:52:37;11.40;99.90
18450;DHT22;9354;50.194;7.690;2024-02-16T03:55:05;11.50;99.90
18450;DHT22;9354;50.194;7.690;2024-02-16T03:57:33;11.50;99.90
18450;DHT22;9354;50.194;7.690;2024-02-16T04:00:00;11.50;99.90
18450;DHT22;9354;50.194;7.690;2024-02-16T04:02:28;11.50;99.90
18450;DHT22;9354;50.194;7.690;2024-02-16T04:04:56;11.40;99.90
18450;DHT22;9354;50.194;7.690;2024-02-16T04:07:25;11.40;99.90
18450;DHT22;9354;50.194;7.690;2024-02-16T04:09:54;11.40;99.90
18450;DHT22;9354;50.194;7.690;2024-02-16T04:12:21;11.40;99.90
18450;DHT22;9354;50.194;7.690;2024-02-16T04:14:49;11.40;99.90
18450;DHT22;9354;50.194;7.690;2024-02-16T04:17:16;11.40;99.90
18450;DHT22;9354;50.194;7.690;2024-02-16T04:19:44;11.40;99.90
18450;DHT22;9354;50.194;7.690;2024-02-16T04:22:12;11.40;99.90
18450;DHT22;9354;50.194;7.690;2024-02-16T04:24:41;11.40;99.90
18450;DHT22;9354;50.194;7.690;2024-02-16T04:27:08;11.40;99.90
18450;DHT22;9354;50.194;7.690;2024-02-16T04:29:36;11.40;99.90
18450;DHT22;9354;50.194;7.690;2024-02-16T04:32:04;11.40;99.90
18450;DHT22;9354;50.194;7.690;2024-02-16T04:34:31;11.40;99.90
18450;DHT22;9354;50.194;7.690;2024-02-16T04:36:58;11.40;99.90
18450;DHT22;9354;50.194;7.690;2024-02-16T04:39:26;11.30;99.90
18450;DHT22;9354;50.194;7.690;2024-02-16T04:41:57;11.40;99.90
18450;DHT22;9354;50.194;7.690;2024-02-16T04:44:24;11.30;99.90
18450;DHT22;9354;50.194;7.690;2024-02-16T04:46:51;11.30;99.90
18450;DHT22;9354;50.194;7.690;2024-02-16T04:49:19;11.30;99.90
18450;DHT22;9354;50.194;7.690;2024-02-16T04:51:47;11.30;99.90
18450;DHT22;9354;50.194;7.690;2024-02-16T04:54:15;11.30;99.90
18450;DHT22;9354;50.194;7.690;2024-02-16T04:56:42;11.20;99.90
18450;DHT22;9354;50.194;7.690;2024-02-16T04:59:11;11.20;99.90
18450;DHT22;9354;50.194;7.690;2024-02-16T05:01:38;11.20;99.90
18450;DHT22;9354;50.194;7.690;2024-02-16T05:04:07;11.20;99.90
18450;DHT22;9354;50.194;7.690;2024-02-16T05:06:38;11.20;99.90
18450;DHT22;9354;50.194;7.690;2024-02-16T05:09:06;11.10;99.90
18450;DHT22;9354;50.194;7.690;2024-02-16T05:11:33;11.10;99.90
18450;DHT22;9354;50.194;7.690;2024-02-16T05:14:01;11.10;99.90
18450;DHT22;9354;50.194;7.690;2024-02-16T05:16:30;11.10;99.90
18450;DHT22;9354;50.194;7.690;2024-02-16T05:18:58;11.10;99.90
18450;DHT22;9354;50.194;7.690;2024-02-16T05:21:25;11.10;99.90
18450;DHT22;9354;50.194;7.690;2024-02-16T05:23:53;11.10;99.90
18450;DHT22;9354;50.194;7.690;2024-02-16T05:26:21;11.00;99.90
18450;DHT22;9354;50.194;7.690;2024-02-16T05:28:48;11.00;99.90
18450;DHT22;9354;50.194;7.690;2024-02-16T05:31:16;11.00;99.90
18450;DHT22;9354;50.194;7.690;2024-02-16T05:33:47;11.10;99.90
18450;DHT22;9354;50.194;7.690;2024-02-16T05:36:16;11.00;99.90
18450;DHT22;9354;50.194;7.690;2024-02-16T05:38:44;11.00;99.90
18450;DHT22;9354;50.194;7.690;2024-02-16T05:41:11;10.90;99.90
18450;DHT22;9354;50.194;7.690;2024-02-16T05:43:42;10.90;99.90
18450;DHT22;9354;50.194;7.690;2024-02-16T05:46:12;10.90;99.90
18450;DHT22;9354;50.194;7.690;2024-02-16T05:48:40;10.80;99.90
18450;DHT22;9354;50.194;7.690;2024-02-16T05:51:09;10.70;99.90
18450;DHT22;9354;50.194;7.690;2024-02-16T05:53:38;10.60;99.90
18450;DHT22;9354;50.194;7.690;2024-02-16T05:56:07;10.60;99.90
18450;DHT22;9354;50.194;7.690;2024-02-16T05:58:36;10.60;99.90
18450;DHT22;9354;50.194;7.690;2024-02-16T06:01:03;10.60;99.90
18450;DHT22;9354;50.194;7.690;2024-02-16T06:03:31;10.60;99.90
18450;DHT22;9354;50.194;7.690;2024-02-16T06:05:59;10.60;99.90
18450;DHT22;9354;50.194;7.690;2024-02-16T06:08:27;10.60;99.90
18450;DHT22;9354;50.194;7.690;2024-02-16T06:10:55;10.60;99.90
18450;DHT22;9354;50.194;7.690;2024-02-16T06:13:22;10.60;99.90
18450;DHT22;9354;50.194;7.690;2024-02-16T06:15:49;10.60;99.90
18450;DHT22;9354;50.194;7.690;2024-02-16T06:18:17;10.60;99.90
18450;DHT22;9354;50.194;7.690;2024-02-16T06:20:45;10.60;99.90
18450;DHT22;9354;50.194;7.690;2024-02-16T06:23:12;10.60;99.90
18450;DHT22;9354;50.194;7.690;2024-02-16T06:25:44;10.60;99.90
18450;DHT22;9354;50.194;7.690;2024-02-16T06:28:12;10.70;99.90
18450;DHT22;9354;50.194;7.690;2024-02-16T06:30:39;10.60;99.90
18450;DHT22;9354;50.194;7.690;2024-02-16T06:33:06;10.70;99.90
18450;DHT22;9354;50.194;7.690;2024-02-16T06:35:34;10.70;99.90
18450;DHT22;9354;50.194;7.690;2024-02-16T06:38:01;10.70;99.90
18450;DHT22;9354;50.194;7.690;2024-02-16T06:40:29;10.60;99.90
18450;DHT22;9354;50.194;7.690;2024-02-16T06:42:57;10.60;99.90
18450;DHT22;9354;50.194;7.690;2024-02-16T06:45:25;10.60;99.90
18450;DHT22;9354;50.194;7.690;2024-02-16T06:47:52;10.60;99.90
18450;DHT22;9354;50.194;7.690;2024-02-16T06:50:20;10.60;99.90
18450;DHT22;9354;50.194;7.690;2024-02-16T06:52:47;10.60;99.90
18450;DHT22;9354;50.194;7.690;2024-02-16T06:55:15;10.60;99.90
18450;DHT22;9354;50.194;7.690;2024-02-16T06:57:42;10.60;99.90
18450;DHT22;9354;50.194;7.690;2024-02-16T07:00:13;10.60;99.90
18450;DHT22;9354;50.194;7.690;2024-02-16T07:02:42;10.60;99.90
18450;DHT22;9354;50.194;7.690;2024-02-16T07:05:10;10.60;99.90
18450;DHT22;9354;50.194;7.690;2024-02-16T07:07:38;10.60;99.90
18450;DHT22;9354;50.194;7.690;2024-02-16T07:10:07;10.60;99.90
18450;DHT22;9354;50.194;7.690;2024-02-16T07:12:39;10.60;99.90
18450;DHT22;9354;50.194;7.690;2024-02-16T07:15:08;10.60;99.90
18450;DHT22;9354;50.194;7.690;2024-02-16T07:17:37;10.60;99.90
18450;DHT22;9354;50.194;7.690;2024-02-16T07:20:05;10.60;99.90
18450;DHT22;9354;50.194;7.690;2024-02-16T07:22:33;10.60;99.90
18450;DHT22;9354;50.194;7.690;2024-02-16T07:25:00;10.60;99.90
18450;DHT22;9354;50.194;7.690;2024-02-16T07:27:29;10.60;99.90
18450;DHT22;9354;50.194;7.690;2024-02-16T07:29:56;10.60;99.90
18450;DHT22;9354;50.194;7.690;2024-02-16T07:32:24;10.70;99.90
18450;DHT22;9354;50.194;7.690;2024-02-16T07:34:52;10.70;99.90
18450;DHT22;9354;50.194;7.690;2024-02-16T07:37:20;10.80;99.90
18450;DHT22;9354;50.194;7.690;2024-02-16T07:39:47;10.80;99.90
18450;DHT22;9354;50.194;7.690;2024-02-16T07:42:15;10.80;99.90
18450;DHT22;9354;50.194;7.690;2024-02-16T07:44:42;10.90;99.90
18450;DHT22;9354;50.194;7.690;2024-02-16T07:47:09;10.90;99.90
18450;DHT22;9354;50.194;7.690;2024-02-16T07:49:38;10.90;99.90
18450;DHT22;9354;50.194;7.690;2024-02-16T07:52:07;10.90;99.90
18450;DHT22;9354;50.194;7.690;2024-02-16T07:54:35;10.90;99.90
18450;DHT22;9354;50.194;7.690;2024-02-16T07:57:02;11.00;99.90
18450;DHT22;9354;50.194;7.690;2024-02-16T07:59:30;11.00;99.90
18450;DHT22;9354;50.194;7.690;2024-02-16T08:01:57;11.00;99.90
18450;DHT22;9354;50.194;7.690;2024-02-16T08:04:25;11.00;99.90
18450;DHT22;9354;50.194;7.690;2024-02-16T08:06:52;11.00;99.90
18450;DHT22;9354;50.194;7.690;2024-02-16T08:09:22;11.10;99.90
18450;DHT22;9354;50.194;7.690;2024-02-16T08:11:49;11.10;99.90
18450;DHT22;9354;50.194;7.690;2024-02-16T08:14:17;11.10;99.90
18450;DHT22;9354;50.194;7.690;2024-02-16T08:16:56;11.10;99.90
18450;DHT22;9354;50.194;7.690;2024-02-16T08:19:24;11.10;99.90
18450;DHT22;9354;50.194;7.690;2024-02-16T08:21:58;11.20;99.90
18450;DHT22;9354;50.194;7.690;2024-02-16T08:24:27;11.10;99.90
18450;DHT22;9354;50.194;7.690;2024-02-16T08:26:54;11.20;99.90
18450;DHT22;9354;50.194;7.690;2024-02-16T08:29:22;11.20;99.90
18450;DHT22;9354;50.194;7.690;2024-02-16T08:31:51;11.20;99.90
18450;DHT22;9354;50.194;7.690;2024-02-16T08:34:18;11.20;99.90
18450;DHT22;9354;50.194;7.690;2024-02-16T08:36:46;11.20;99.90
18450;DHT22;9354;50.194;7.690;2024-02-16T08:39:15;11.30;99.90
18450;DHT22;9354;50.194;7.690;2024-02-16T08:41:44;11.30;99.90
18450;DHT22;9354;50.194;7.690;2024-02-16T08:44:14;11.30;99.90
18450;DHT22;9354;50.194;7.690;2024-02-16T08:46:41;11.30;99.90
18450;DHT22;9354;50.194;7.690;2024-02-16T08:49:09;11.30;99.90
18450;DHT22;9354;50.194;7.690;2024-02-16T08:51:36;11.40;99.90
18450;DHT22;9354;50.194;7.690;2024-02-16T08:54:04;11.30;99.90
18450;DHT22;9354;50.194;7.690;2024-02-16T08:56:31;11.30;99.90
18450;DHT22;9354;50.194;7.690;2024-02-16T08:59:02;11.30;99.90
18450;DHT22;9354;50.194;7.690;2024-02-16T09:01:30;11.30;99.90
18450;DHT22;9354;50.194;7.690;2024-02-16T09:03:58;11.40;99.90
18450;DHT22;9354;50.194;7.690;2024-02-16T09:06:26;11.40;99.90
18450;DHT22;9354;50.194;7.690;2024-02-16T09:08:54;11.40;99.90
18450;DHT22;9354;50.194;7.690;2024-02-16T09:11:22;11.40;99.90
18450;DHT22;9354;50.194;7.690;2024-02-16T09:13:49;11.50;99.90
18450;DHT22;9354;50.194;7.690;2024-02-16T09:16:18;11.50;99.90
18450;DHT22;9354;50.194;7.690;2024-02-16T09:18:46;11.50;99.90
18450;DHT22;9354;50.194;7.690;2024-02-16T09:21:14;11.60;99.90
18450;DHT22;9354;50.194;7.690;2024-02-16T09:23:41;11.60;99.90
18450;DHT22;9354;50.194;7.690;2024-02-16T09:26:09;11.70;99.90
18450;DHT22;9354;50.194;7.690;2024-02-16T09:28:39;11.80;99.90
18450;DHT22;9354;50.194;7.690;2024-02-16T09:31:07;11.80;99.90
18450;DHT22;9354;50.194;7.690;2024-02-16T09:33:36;11.80;99.90
18450;DHT22;9354;50.194;7.690;2024-02-16T09:36:04;11.80;99.90
18450;DHT22;9354;50.194;7.690;2024-02-16T09:38:31;11.90;99.90
18450;DHT22;9354;50.194;7.690;2024-02-16T09:40:59;11.90;99.90
18450;DHT22;9354;50.194;7.690;2024-02-16T09:43:28;11.90;99.90
18450;DHT22;9354;50.194;7.690;2024-02-16T09:45:56;11.90;99.90
18450;DHT22;9354;50.194;7.690;2024-02-16T09:48:26;12.00;99.90
18450;DHT22;9354;50.194;7.690;2024-02-16T09:50:56;12.00;99.90
18450;DHT22;9354;50.194;7.690;2024-02-16T09:53:26;12.00;99.90
18450;DHT22;9354;50.194;7.690;2024-02-16T09:55:53;12.00;99.90
18450;DHT22;9354;50.194;7.690;2024-02-16T09:58:21;12.10;99.90
18450;DHT22;9354;50.194;7.690;2024-02-16T10:00:52;12.10;99.90
18450;DHT22;9354;50.194;7.690;2024-02-16T10:03:27;12.10;99.90
18450;DHT22;9354;50.194;7.690;2024-02-16T10:06:06;12.20;99.90
18450;DHT22;9354;50.194;7.690;2024-02-16T10:08:33;12.30;99.90
18450;DHT22;9354;50.194;7.690;2024-02-16T10:11:02;12.40;99.90
18450;DHT22;9354;50.194;7.690;2024-02-16T10:13:30;12.50;99.90
18450;DHT22;9354;50.194;7.690;2024-02-16T10:16:07;12.50;99.90
18450;DHT22;9354;50.194;7.690;2024-02-16T10:18:36;12.60;99.90
18450;DHT22;9354;50.194;7.690;2024-02-16T10:21:05;12.70;99.90
18450;DHT22;9354;50.194;7.690;2024-02-16T10:23:33;12.70;99.90
18450;DHT22;9354;50.194;7.690;2024-02-16T10:26:01;12.80;99.90
18450;DHT22;9354;50.194;7.690;2024-02-16T10:28:29;12.90;99.90
18450;DHT22;9354;50.194;7.690;2024-02-16T10:30:58;12.90;99.90
18450;DHT22;9354;50.194;7.690;2024-02-16T10:33:27;12.90;99.90
18450;DHT22;9354;50.194;7.690;2024-02-16T10:35:56;13.00;99.90
18450;DHT22;9354;50.194;7.690;2024-02-16T10:38:27;13.10;99.90
18450;DHT22;9354;50.194;7.690;2024-02-16T10:40:56;13.20;99.90
18450;DHT22;9354;50.194;7.690;2024-02-16T10:43:26;13.30;99.90
18450;DHT22;9354;50.194;7.690;2024-02-16T10:45:56;13.40;99.90
18450;DHT22;9354;50.194;7.690;2024-02-16T10:48:24;13.50;99.90
18450;DHT22;9354;50.194;7.690;2024-02-16T10:50:53;13.60;99.90
18450;DHT22;9354;50.194;7.690;2024-02-16T10:53:24;13.60;99.90
18450;DHT22;9354;50.194;7.690;2024-02-16T10:55:56;13.60;99.90
18450;DHT22;9354;50.194;7.690;2024-02-16T10:58:24;13.70;99.90
18450;DHT22;9354;50.194;7.690;2024-02-16T11:00:51;13.80;99.90
18450;DHT22;9354;50.194;7.690;2024-02-16T11:03:22;13.80;99.90
18450;DHT22;9354;50.194;7.690;2024-02-16T11:05:50;13.70;99.90
18450;DHT22;9354;50.194;7.690;2024-02-16T11:08:19;13.80;99.90
18450;DHT22;9354;50.194;7.690;2024-02-16T11:10:58;13.80;99.90
18450;DHT22;9354;50.194;7.690;2024-02-16T11:13:27;13.80;99.90
18450;DHT22;9354;50.194;7.690;2024-02-16T11:15:58;13.80;99.90
18450;DHT22;9354;50.194;7.690;2024-02-16T11:18:27;13.80;99.90
18450;DHT22;9354;50.194;7.690;2024-02-16T11:21:00;13.80;99.90
18450;DHT22;9354;50.194;7.690;2024-02-16T11:23:28;13.80;99.90
18450;DHT22;9354;50.194;7.690;2024-02-16T11:26:01;13.80;99.90
18450;DHT22;9354;50.194;7.690;2024-02-16T11:28:32;13.80;99.90
18450;DHT22;9354;50.194;7.690;2024-02-16T11:31:00;13.80;99.90
18450;DHT22;9354;50.194;7.690;2024-02-16T11:33:29;13.90;99.90
18450;DHT22;9354;50.194;7.690;2024-02-16T11:35:57;13.80;99.90
18450;DHT22;9354;50.194;7.690;2024-02-16T11:38:25;13.90;99.90
18450;DHT22;9354;50.194;7.690;2024-02-16T11:40:57;13.90;99.90
18450;DHT22;9354;50.194;7.690;2024-02-16T11:43:26;14.00;99.90
18450;DHT22;9354;50.194;7.690;2024-02-16T11:45:53;14.00;99.90
18450;DHT22;9354;50.194;7.690;2024-02-16T11:48:21;14.10;99.90
18450;DHT22;9354;50.194;7.690;2024-02-16T11:50:58;14.10;99.90
18450;DHT22;9354;50.194;7.690;2024-02-16T11:53:26;14.20;99.90
18450;DHT22;9354;50.194;7.690;2024-02-16T11:55:53;14.30;99.90
18450;DHT22;9354;50.194;7.690;2024-02-16T11:58:21;14.30;99.90
18450;DHT22;9354;50.194;7.690;2024-02-16T12:00:51;14.30;99.90
18450;DHT22;9354;50.194;7.690;2024-02-16T12:03:19;14.40;99.90
18450;DHT22;9354;50.194;7.690;2024-02-16T12:05:51;14.40;99.90
18450;DHT22;9354;50.194;7.690;2024-02-16T12:08:19;14.50;99.90
18450;DHT22;9354;50.194;7.690;2024-02-16T12:10:47;14.50;99.90
18450;DHT22;9354;50.194;7.690;2024-02-16T12:13:16;14.50;99.90
18450;DHT22;9354;50.194;7.690;2024-02-16T12:15:44;14.50;99.90
18450;DHT22;9354;50.194;7.690;2024-02-16T12:18:23;14.50;99.90
18450;DHT22;9354;50.194;7.690;2024-02-16T12:20:58;14.50;99.90
18450;DHT22;9354;50.194;7.690;2024-02-16T12:23:26;14.50;99.90
18450;DHT22;9354;50.194;7.690;2024-02-16T12:25:54;14.50;99.90
18450;DHT22;9354;50.194;7.690;2024-02-16T12:28:24;14.50;99.90
18450;DHT22;9354;50.194;7.690;2024-02-16T12:30:53;14.50;99.90
18450;DHT22;9354;50.194;7.690;2024-02-16T12:33:22;14.40;99.90
18450;DHT22;9354;50.194;7.690;2024-02-16T12:35:50;14.40;99.90
18450;DHT22;9354;50.194;7.690;2024-02-16T12:38:18;14.30;99.90
18450;DHT22;9354;50.194;7.690;2024-02-16T12:40:45;14.30;99.90
18450;DHT22;9354;50.194;7.690;2024-02-16T12:43:13;14.20;99.90
18450;DHT22;9354;50.194;7.690;2024-02-16T12:45:41;14.20;99.90
18450;DHT22;9354;50.194;7.690;2024-02-16T12:48:08;14.10;99.90
18450;DHT22;9354;50.194;7.690;2024-02-16T12:50:40;14.10;99.90
18450;DHT22;9354;50.194;7.690;2024-02-16T12:53:08;14.00;99.90
18450;DHT22;9354;50.194;7.690;2024-02-16T12:55:35;14.00;99.90
18450;DHT22;9354;50.194;7.690;2024-02-16T12:58:03;14.00;99.90
18450;DHT22;9354;50.194;7.690;2024-02-16T13:00:31;13.90;99.90
18450;DHT22;9354;50.194;7.690;2024-02-16T13:02:58;13.90;99.90
18450;DHT22;9354;50.194;7.690;2024-02-16T13:05:26;13.80;99.90
18450;DHT22;9354;50.194;7.690;2024-02-16T13:07:55;13.80;99.90
18450;DHT22;9354;50.194;7.690;2024-02-16T13:10:22;13.80;99.90
18450;DHT22;9354;50.194;7.690;2024-02-16T13:12:49;13.80;99.90
18450;DHT22;9354;50.194;7.690;2024-02-16T13:15:17;13.70;99.90
18450;DHT22;9354;50.194;7.690;2024-02-16T13:17:44;13.70;99.90
18450;DHT22;9354;50.194;7.690;2024-02-16T13:20:12;13.70;99.90
18450;DHT22;9354;50.194;7.690;2024-02-16T13:22:39;13.70;99.90
18450;DHT22;9354;50.194;7.690;2024-02-16T13:25:09;13.70;99.90
18450;DHT22;9354;50.194;7.690;2024-02-16T13:27:37;13.70;99.90
18450;DHT22;9354;50.194;7.690;2024-02-16T13:30:05;13.70;99.90
18450;DHT22;9354;50.194;7.690;2024-02-16T13:32:33;13.70;99.90
18450;DHT22;9354;50.194;7.690;2024-02-16T13:35:02;13.70;99.90
18450;DHT22;9354;50.194;7.690;2024-02-16T13:37:30;13.70;99.90
18450;DHT22;9354;50.194;7.690;2024-02-16T13:39:57;13.70;99.90
18450;DHT22;9354;50.194;7.690;2024-02-16T13:42:26;13.70;99.90
18450;DHT22;9354;50.194;7.690;2024-02-16T13:44:54;13.70;99.90
18450;DHT22;9354;50.194;7.690;2024-02-16T13:47:23;13.70;99.90
18450;DHT22;9354;50.194;7.690;2024-02-16T13:49:50;13.70;99.90
18450;DHT22;9354;50.194;7.690;2024-02-16T13:52:18;13.80;99.90
18450;DHT22;9354;50.194;7.690;2024-02-16T13:54:45;13.80;99.90
18450;DHT22;9354;50.194;7.690;2024-02-16T13:57:13;13.80;99.90
18450;DHT22;9354;50.194;7.690;2024-02-16T13:59:42;13.70;99.90
18450;DHT22;9354;50.194;7.690;2024-02-16T14:02:10;13.70;99.90
18450;DHT22;9354;50.194;7.690;2024-02-16T14:04:38;13.70;99.90
18450;DHT22;9354;50.194;7.690;2024-02-16T14:07:05;13.70;99.90
18450;DHT22;9354;50.194;7.690;2024-02-16T14:09:33;13.70;99.90
18450;DHT22;9354;50.194;7.690;2024-02-16T14:12:00;13.70;99.90
18450;DHT22;9354;50.194;7.690;2024-02-16T14:14:27;13.70;99.90
18450;DHT22;9354;50.194;7.690;2024-02-16T14:16:56;13.60;99.90
18450;DHT22;9354;50.194;7.690;2024-02-16T14:19:24;13.60;99.90
18450;DHT22;9354;50.194;7.690;2024-02-16T14:21:51;13.60;99.90
18450;DHT22;9354;50.194;7.690;2024-02-16T14:24:18;13.60;99.90
18450;DHT22;9354;50.194;7.690;2024-02-16T14:26:46;13.60;99.90
18450;DHT22;9354;50.194;7.690;2024-02-16T14:29:14;13.60;99.90
18450;DHT22;9354;50.194;7.690;2024-02-16T14:31:42;13.50;99.90
18450;DHT22;9354;50.194;7.690;2024-02-16T14:34:11;13.50;99.90
18450;DHT22;9354;50.194;7.690;2024-02-16T14:36:38;13.50;99.90
18450;DHT22;9354;50.194;7.690;2024-02-16T14:39:05;13.40;99.90
18450;DHT22;9354;50.194;7.690;2024-02-16T14:41:34;13.40;99.90
18450;DHT22;9354;50.194;7.690;2024-02-16T14:44:02;13.30;99.90
18450;DHT22;9354;50.194;7.690;2024-02-16T14:46:30;13.30;99.90
18450;DHT22;9354;50.194;7.690;2024-02-16T14:48:57;13.30;99.90
18450;DHT22;9354;50.194;7.690;2024-02-16T14:51:26;13.20;99.90
18450;DHT22;9354;50.194;7.690;2024-02-16T14:53:53;13.20;99.90
18450;DHT22;9354;50.194;7.690;2024-02-16T14:56:21;13.20;99.90
18450;DHT22;9354;50.194;7.690;2024-02-16T14:58:49;13.20;99.90
18450;DHT22;9354;50.194;7.690;2024-02-16T15:01:17;13.20;99.90
18450;DHT22;9354;50.194;7.690;2024-02-16T15:03:44;13.10;99.90
18450;DHT22;9354;50.194;7.690;2024-02-16T15:06:12;13.10;99.90
18450;DHT22;9354;50.194;7.690;2024-02-16T15:08:40;13.10;99.90
18450;DHT22;9354;50.194;7.690;2024-02-16T15:11:08;13.00;99.90
18450;DHT22;9354;50.194;7.690;2024-02-16T15:13:35;13.00;99.90
18450;DHT22;9354;50.194;7.690;2024-02-16T15:16:04;13.00;99.90
18450;DHT22;9354;50.194;7.690;2024-02-16T15:18:31;13.00;99.90
18450;DHT22;9354;50.194;7.690;2024-02-16T15:20:59;13.00;99.90
18450;DHT22;9354;50.194;7.690;2024-02-16T15:23:27;12.90;99.90
18450;DHT22;9354;50.194;7.690;2024-02-16T15:25:56;12.90;99.90
18450;DHT22;9354;50.194;7.690;2024-02-16T15:28:23;12.90;99.90
18450;DHT22;9354;50.194;7.690;2024-02-16T15:30:51;12.90;99.90
18450;DHT22;9354;50.194;7.690;2024-02-16T15:33:18;12.90;99.90
18450;DHT22;9354;50.194;7.690;2024-02-16T15:35:46;12.90;99.90
18450;DHT22;9354;50.194;7.690;2024-02-16T15:38:13;12.90;99.90
18450;DHT22;9354;50.194;7.690;2024-02-16T15:40:41;12.90;99.90
18450;DHT22;9354;50.194;7.690;2024-02-16T15:43:10;12.90;99.90
18450;DHT22;9354;50.194;7.690;2024-02-16T15:45:38;12.80;99.90
18450;DHT22;9354;50.194;7.690;2024-02-16T15:48:07;12.80;99.90
18450;DHT22;9354;50.194;7.690;2024-02-16T15:50:35;12.80;99.90